Etoile — ETOILE — position and weather

sailwx.info

Track history (hours):
 
Tides and Currents Weather Stations Pressure Air Temp Water Temp Dewpoint Dewpoint Depression Visibility Wind Speed Wind Dir Waves Ship Positions

Etoile

Last reported at 2014-Jul-12 20:33 UTC. Time now 2014-Jul-26 01:10 UTC.
Position N 41°20' W 071°55'.
Warning: this ship's position is 13 days out of date.

Length 17 m.

Type: Pleasure craft. MMSI: 367485880.

Date/timePositionNaut miles runAvg speedWind from/ knotsBaromVisibWave heightAir tempDewpointWater temp
2014-Jul-12 20:33N 41°20' W 071°55'3 3.5
2014-Jul-12 19:33N 41°18' W 071°51'6 5.9
2014-Jul-12 18:33N 41°16' W 071°44'5 4.7
2014-Jul-12 17:33N 41°16' W 071°50'5 4.8
2014-Jul-12 16:33N 41°20' W 071°55'  
2014-Jul-08 16:21N 41°20' W 071°55'2 2.0
2014-Jul-08 15:33N 41°19' W 071°55'1 0.1
2014-Jul-07 20:33N 41°20' W 071°55'4 3.7
2014-Jul-07 19:33N 41°18' W 071°59'1 1.3
2014-Jul-07 18:31N 41°17' W 071°60'2 1.9
2014-Jul-07 17:33N 41°18' W 071°59'4 3.5
2014-Jul-07 16:31N 41°20' W 071°55'2 0.1
2014-Jul-06 20:33N 41°19' W 071°55'2 1.6
2014-Jul-06 19:33N 41°17' W 071°55'5 4.8
2014-Jul-06 18:33N 41°14' W 071°59'6 6.5
2014-Jul-06 17:33N 41°11' W 072°07'5 4.7
2014-Jul-06 16:33N 41°08' W 072°12'4 4.1
2014-Jul-06 15:33N 41°06' W 072°17'1 0.3
2014-Jul-06 12:33N 41°06' W 072°18'2 2.1
2014-Jul-06 11:31N 41°04' W 072°18'0 0.0
2014-Jul-05 18:17N 41°04' W 072°18'1 1.9
2014-Jul-05 17:33N 41°05' W 072°16'7 7.1
2014-Jul-05 16:33N 41°09' W 072°09'7 6.6
2014-Jul-05 15:33N 41°12' W 072°01'7 6.5
2014-Jul-05 14:34N 41°17' W 071°55'  
Track history (hours):
 
Tides and Currents Weather Stations Pressure Air Temp Water Temp Dewpoint Dewpoint Depression Visibility Wind Speed Wind Dir Waves Ship Positions

Etoile

Last reported at 2014-Jul-12 20:33 UTC. Time now 2014-Jul-26 01:10 UTC.
Position N 41°20' W 071°55'.
Warning: this ship's position is 13 days out of date.

Length 17 m.

Type: Pleasure craft. MMSI: 367485880.

Date/timePositionNaut miles runAvg speedWind from/ knotsBaromVisibWave heightAir tempDewpointWater temp
2014-Jul-12 20:33N 41°20' W 071°55'3 3.5
2014-Jul-12 19:33N 41°18' W 071°51'6 5.9
2014-Jul-12 18:33N 41°16' W 071°44'5 4.7
2014-Jul-12 17:33N 41°16' W 071°50'5 4.8
2014-Jul-12 16:33N 41°20' W 071°55'  
2014-Jul-08 16:21N 41°20' W 071°55'2 2.0
2014-Jul-08 15:33N 41°19' W 071°55'1 0.1
2014-Jul-07 20:33N 41°20' W 071°55'4 3.7
2014-Jul-07 19:33N 41°18' W 071°59'1 1.3
2014-Jul-07 18:31N 41°17' W 071°60'2 1.9
2014-Jul-07 17:33N 41°18' W 071°59'4 3.5
2014-Jul-07 16:31N 41°20' W 071°55'2 0.1
2014-Jul-06 20:33N 41°19' W 071°55'2 1.6
2014-Jul-06 19:33N 41°17' W 071°55'5 4.8
2014-Jul-06 18:33N 41°14' W 071°59'6 6.5
2014-Jul-06 17:33N 41°11' W 072°07'5 4.7
2014-Jul-06 16:33N 41°08' W 072°12'4 4.1
2014-Jul-06 15:33N 41°06' W 072°17'1 0.3
2014-Jul-06 12:33N 41°06' W 072°18'2 2.1
2014-Jul-06 11:31N 41°04' W 072°18'0 0.0
2014-Jul-05 18:17N 41°04' W 072°18'1 1.9
2014-Jul-05 17:33N 41°05' W 072°16'7 7.1
2014-Jul-05 16:33N 41°09' W 072°09'7 6.6
2014-Jul-05 15:33N 41°12' W 072°01'7 6.5
2014-Jul-05 14:34N 41°17' W 071°55'  

Dump ship's entire track history